createdAt,value
2023-05-14T00:02:23.583Z,16.64
2023-05-14T00:04:49.737Z,16.71
2023-05-14T00:07:16.081Z,16.57
2023-05-14T00:09:42.249Z,16.19
2023-05-14T00:12:08.510Z,15.64
2023-05-14T00:14:34.663Z,15.36
2023-05-14T00:17:00.843Z,16.38
2023-05-14T00:19:26.997Z,16.38
2023-05-14T00:21:53.115Z,16.48
2023-05-14T00:24:19.245Z,16.50
2023-05-14T00:26:45.323Z,16.47
2023-05-14T00:29:11.392Z,16.54
2023-05-14T00:31:37.505Z,16.02
2023-05-14T00:34:03.634Z,15.85
2023-05-14T00:36:30.758Z,15.97
2023-05-14T00:38:56.804Z,15.75
2023-05-14T00:41:22.968Z,16.08
2023-05-14T00:43:49.077Z,15.71
2023-05-14T00:46:15.802Z,16.07
2023-05-14T00:48:41.929Z,16.04
2023-05-14T00:51:08.064Z,15.92
2023-05-14T00:53:35.292Z,16.28
2023-05-14T00:56:01.999Z,14.85
2023-05-14T00:58:28.208Z,16.04
2023-05-14T01:00:54.448Z,15.50
2023-05-14T01:03:20.754Z,15.34
2023-05-14T01:05:51.959Z,14.81
2023-05-14T01:08:27.834Z,15.52
2023-05-14T01:11:12.160Z,15.55
2023-05-14T01:13:56.591Z,15.82
2023-05-14T01:16:24.787Z,15.72
2023-05-14T01:18:51.870Z,15.32
2023-05-14T01:21:34.295Z,15.68
2023-05-14T01:24:00.369Z,15.57
2023-05-14T01:26:27.398Z,15.57
2023-05-14T01:28:54.496Z,15.63
2023-05-14T01:31:27.186Z,15.79
2023-05-14T01:33:54.211Z,15.78
2023-05-14T01:36:20.525Z,15.82
2023-05-14T01:38:49.064Z,15.99
2023-05-14T01:41:15.976Z,15.65
2023-05-14T01:43:42.082Z,15.44
2023-05-14T01:46:08.206Z,15.50
2023-05-14T01:48:34.361Z,15.63
2023-05-14T01:51:01.593Z,15.69
2023-05-14T01:53:27.725Z,15.70
2023-05-14T01:55:53.793Z,15.71
2023-05-14T01:58:20.040Z,15.59
2023-05-14T02:00:46.211Z,15.71
2023-05-14T02:03:12.430Z,14.78
2023-05-14T02:05:38.519Z,15.22
2023-05-14T02:08:05.016Z,14.64
2023-05-14T02:10:31.084Z,14.47
2023-05-14T02:12:57.133Z,14.35
2023-05-14T02:15:23.187Z,14.00
2023-05-14T02:17:49.366Z,15.22
2023-05-14T02:20:15.792Z,15.35
2023-05-14T02:22:44.834Z,15.45
2023-05-14T02:25:11.256Z,15.57
2023-05-14T02:27:37.477Z,15.40
2023-05-14T02:30:04.313Z,15.31
2023-05-14T02:32:30.488Z,15.59
2023-05-14T02:34:56.615Z,15.60
2023-05-14T02:37:22.699Z,14.59
2023-05-14T02:39:48.836Z,15.27
2023-05-14T02:42:14.904Z,15.30
2023-05-14T02:44:40.981Z,15.37
2023-05-14T02:47:07.135Z,15.49
2023-05-14T02:49:33.282Z,15.59
2023-05-14T02:52:00.204Z,15.49
2023-05-14T02:54:26.422Z,15.51
2023-05-14T02:56:52.598Z,15.47
2023-05-14T02:59:18.692Z,15.34
2023-05-14T03:01:45.156Z,14.86
2023-05-14T03:04:11.651Z,15.43
2023-05-14T03:06:37.713Z,15.45
2023-05-14T03:09:03.789Z,15.45
2023-05-14T03:11:29.919Z,15.52
2023-05-14T03:13:56.048Z,14.81
2023-05-14T03:16:22.140Z,15.01
2023-05-14T03:18:48.275Z,15.15
2023-05-14T03:21:14.434Z,14.83
2023-05-14T03:23:40.563Z,15.41
2023-05-14T03:26:06.654Z,15.38
2023-05-14T03:28:32.738Z,15.41
2023-05-14T03:30:58.860Z,15.48
2023-05-14T03:33:25.307Z,15.60
2023-05-14T03:35:51.408Z,15.55
2023-05-14T03:38:17.491Z,15.62
2023-05-14T03:40:44.652Z,15.64
2023-05-14T03:43:10.986Z,15.76
2023-05-14T03:45:37.067Z,15.61
2023-05-14T03:48:03.557Z,15.60
2023-05-14T03:50:29.810Z,15.21
2023-05-14T03:52:55.903Z,15.61
2023-05-14T03:55:22.121Z,15.67
2023-05-14T03:57:48.506Z,15.34
2023-05-14T04:00:14.908Z,15.70
2023-05-14T04:02:41.636Z,15.70
2023-05-14T04:05:08.009Z,15.90
2023-05-14T04:07:34.134Z,15.90
2023-05-14T04:10:02.581Z,15.53
2023-05-14T04:12:30.192Z,15.87
2023-05-14T04:14:57.442Z,15.94
2023-05-14T04:17:23.534Z,15.92
2023-05-14T04:19:49.729Z,15.90
2023-05-14T04:22:15.816Z,15.84
2023-05-14T04:24:41.893Z,15.85
2023-05-14T04:27:07.989Z,15.91
2023-05-14T04:29:34.076Z,15.95
2023-05-14T04:32:00.419Z,15.79
2023-05-14T04:34:26.567Z,16.04
2023-05-14T04:36:52.695Z,16.05
2023-05-14T04:39:18.753Z,16.09
2023-05-14T04:41:44.940Z,16.06
2023-05-14T04:44:12.267Z,15.98
2023-05-14T04:46:38.359Z,15.85
2023-05-14T04:49:04.501Z,15.96
2023-05-14T04:51:30.989Z,16.08
2023-05-14T04:53:57.035Z,16.18
2023-05-14T04:56:23.083Z,16.26
2023-05-14T04:58:49.172Z,16.16
2023-05-14T05:01:15.480Z,16.20
2023-05-14T05:03:41.652Z,15.48
2023-05-14T05:06:08.015Z,15.97
2023-05-14T05:08:34.071Z,15.88
2023-05-14T05:11:00.117Z,15.59
2023-05-14T05:13:26.187Z,16.11
2023-05-14T05:15:52.342Z,16.36
2023-05-14T05:18:18.507Z,16.29
2023-05-14T05:20:44.576Z,16.35
2023-05-14T05:23:10.718Z,16.23
2023-05-14T05:25:36.804Z,15.87
2023-05-14T05:28:02.962Z,15.48
2023-05-14T05:30:29.558Z,16.45
2023-05-14T05:32:56.824Z,16.48
2023-05-14T05:35:22.992Z,16.46
2023-05-14T05:37:49.115Z,16.03
2023-05-14T05:40:15.378Z,15.64
2023-05-14T05:42:41.730Z,16.16
2023-05-14T05:45:08.220Z,16.29
2023-05-14T05:47:34.399Z,16.42
2023-05-14T05:50:00.485Z,16.34
2023-05-14T05:52:26.613Z,16.36
2023-05-14T05:54:52.743Z,16.41
2023-05-14T05:57:18.801Z,16.56
2023-05-14T05:59:45.212Z,16.51
2023-05-14T06:02:11.310Z,16.58
2023-05-14T06:04:37.508Z,16.50
2023-05-14T06:07:03.777Z,16.28
2023-05-14T06:09:29.989Z,16.41
2023-05-14T06:11:56.073Z,16.61
2023-05-14T06:14:22.628Z,16.72
2023-05-14T06:16:48.747Z,16.70
2023-05-14T06:19:14.888Z,16.29
2023-05-14T06:21:41.027Z,16.60
2023-05-14T06:24:07.325Z,16.79
2023-05-14T06:26:33.398Z,16.77
2023-05-14T06:28:59.682Z,16.56
2023-05-14T06:31:25.839Z,16.29
2023-05-14T06:33:51.955Z,16.47
2023-05-14T06:36:18.037Z,16.55
2023-05-14T06:38:44.218Z,16.13
2023-05-14T06:41:10.294Z,16.65
2023-05-14T06:43:36.336Z,16.77
2023-05-14T06:46:02.486Z,17.04
2023-05-14T06:48:28.821Z,16.80
2023-05-14T06:50:55.509Z,16.46
2023-05-14T06:53:21.588Z,16.90
2023-05-14T06:55:48.090Z,16.09
2023-05-14T06:58:14.146Z,16.64
2023-05-14T07:00:40.321Z,16.12
2023-05-14T07:03:06.449Z,17.30
2023-05-14T07:05:32.586Z,16.98
2023-05-14T07:07:59.033Z,15.15
2023-05-14T07:10:25.722Z,17.19
2023-05-14T07:12:51.998Z,17.15
2023-05-14T07:15:18.139Z,17.18
2023-05-14T07:17:44.387Z,17.55
2023-05-14T07:20:11.023Z,17.48
2023-05-14T07:22:37.120Z,17.72
2023-05-14T07:25:03.340Z,17.97
2023-05-14T07:27:29.620Z,17.60
2023-05-14T07:29:55.763Z,17.54
2023-05-14T07:32:21.857Z,17.77
2023-05-14T07:34:48.177Z,18.12
2023-05-14T07:37:14.244Z,17.23
2023-05-14T07:39:41.006Z,17.77
2023-05-14T07:42:07.082Z,18.23
2023-05-14T07:44:33.176Z,16.83
2023-05-14T07:46:59.248Z,17.54
2023-05-14T07:49:25.422Z,17.85
2023-05-14T07:51:51.472Z,17.92
2023-05-14T07:54:17.605Z,18.29
2023-05-14T07:56:43.859Z,18.01
2023-05-14T07:59:09.954Z,17.69
2023-05-14T08:01:38.537Z,17.48
2023-05-14T08:04:05.428Z,18.30
2023-05-14T08:06:31.618Z,18.43
2023-05-14T08:08:57.714Z,18.44
2023-05-14T08:11:23.824Z,18.08
2023-05-14T08:13:49.933Z,18.86
2023-05-14T08:16:16.030Z,18.87
2023-05-14T08:18:42.117Z,19.00
2023-05-14T08:21:08.174Z,18.32
2023-05-14T08:23:34.292Z,18.39
2023-05-14T08:26:00.655Z,18.84
2023-05-14T08:28:26.745Z,19.25
2023-05-14T08:30:52.878Z,19.80
2023-05-14T08:33:18.925Z,19.67
2023-05-14T08:35:44.974Z,20.67
2023-05-14T08:38:11.046Z,19.93
2023-05-14T08:40:37.248Z,20.73
2023-05-14T08:43:03.438Z,20.17
2023-05-14T08:45:33.670Z,20.00
2023-05-14T08:48:05.011Z,19.84
2023-05-14T08:50:31.361Z,19.35
2023-05-14T08:52:57.534Z,19.89
2023-05-14T08:55:25.394Z,20.28
2023-05-14T08:57:51.595Z,16.93
2023-05-14T09:00:17.957Z,19.99
2023-05-14T09:02:44.480Z,19.67
2023-05-14T09:05:10.775Z,19.88
2023-05-14T09:07:36.861Z,19.84
2023-05-14T09:10:03.363Z,19.91
2023-05-14T09:12:29.787Z,19.26
2023-05-14T09:14:55.864Z,20.57
2023-05-14T09:17:25.175Z,20.46
2023-05-14T09:19:52.324Z,20.63
2023-05-14T09:22:18.822Z,20.12
2023-05-14T09:24:45.714Z,21.11
2023-05-14T09:27:19.669Z,21.21
2023-05-14T09:29:45.763Z,20.72
2023-05-14T09:32:12.139Z,19.98
2023-05-14T09:34:39.281Z,19.69
2023-05-14T09:37:07.743Z,19.82
2023-05-14T09:39:38.151Z,20.42
2023-05-14T09:42:04.832Z,20.37
2023-05-14T09:44:31.316Z,18.64
2023-05-14T09:46:57.528Z,20.45
2023-05-14T09:49:23.614Z,20.92
2023-05-14T09:51:49.982Z,20.65
2023-05-14T09:54:16.195Z,19.80
2023-05-14T09:56:42.955Z,20.62
2023-05-14T09:59:09.169Z,19.89
2023-05-14T10:01:35.713Z,20.23
2023-05-14T10:04:06.740Z,19.81
2023-05-14T10:06:36.393Z,22.05
2023-05-14T10:09:05.099Z,21.58
2023-05-14T10:11:33.369Z,21.87
2023-05-14T10:14:03.010Z,20.68
2023-05-14T10:16:33.425Z,21.42
2023-05-14T10:19:07.902Z,20.99
2023-05-14T10:21:40.095Z,20.08
2023-05-14T10:24:07.432Z,20.36
2023-05-14T10:26:39.074Z,20.67
2023-05-14T10:29:05.887Z,21.63
2023-05-14T10:31:53.366Z,21.77
2023-05-14T10:34:32.619Z,22.73
2023-05-14T10:37:00.384Z,21.95
2023-05-14T10:39:48.049Z,22.07
2023-05-14T10:42:17.192Z,22.21
2023-05-14T10:45:06.516Z,21.49
2023-05-14T10:47:33.523Z,21.34
2023-05-14T10:50:02.445Z,21.35
2023-05-14T10:52:29.039Z,20.77
2023-05-14T10:54:56.877Z,20.40
2023-05-14T10:57:25.664Z,22.14
2023-05-14T10:59:54.137Z,22.77
2023-05-14T11:02:22.688Z,22.73
2023-05-14T11:05:13.356Z,21.88
2023-05-14T11:07:41.342Z,20.92
2023-05-14T11:10:12.259Z,21.03
2023-05-14T11:12:41.910Z,21.27
2023-05-14T11:15:09.757Z,21.03
2023-05-14T11:17:37.176Z,20.82
2023-05-14T11:20:07.425Z,20.95
2023-05-14T11:22:37.440Z,21.97
2023-05-14T11:25:04.654Z,21.12
2023-05-14T11:27:33.378Z,22.57
2023-05-14T11:30:00.339Z,21.93
2023-05-14T11:32:26.658Z,22.26
2023-05-14T11:34:53.016Z,21.99
2023-05-14T11:37:19.617Z,22.29
2023-05-14T11:39:53.333Z,22.65
2023-05-14T11:42:20.927Z,23.27
2023-05-14T11:44:49.246Z,23.33
2023-05-14T11:47:16.711Z,22.28
2023-05-14T11:49:43.069Z,23.44
2023-05-14T11:52:18.613Z,22.37
2023-05-14T11:54:45.177Z,23.85
2023-05-14T11:57:17.296Z,23.51
2023-05-14T11:59:43.925Z,23.66
2023-05-14T12:02:11.560Z,22.53
2023-05-14T12:04:38.130Z,23.92
2023-05-14T12:07:09.573Z,23.65
2023-05-14T12:09:48.747Z,23.35
2023-05-14T12:12:19.481Z,24.74
2023-05-14T12:14:46.101Z,23.44
2023-05-14T12:17:17.416Z,22.99
2023-05-14T12:19:45.236Z,23.02
2023-05-14T12:22:12.677Z,22.52
2023-05-14T12:24:39.529Z,23.09
2023-05-14T12:27:06.584Z,22.16
2023-05-14T12:29:36.756Z,22.38
2023-05-14T12:32:07.887Z,21.43
2023-05-14T12:34:37.612Z,21.81
2023-05-14T12:37:05.130Z,21.92
2023-05-14T12:39:32.613Z,21.67
2023-05-14T12:41:58.733Z,21.12
2023-05-14T12:44:24.887Z,21.93
2023-05-14T12:46:50.982Z,21.84
2023-05-14T12:49:17.044Z,22.02
2023-05-14T12:51:43.353Z,21.86
2023-05-14T12:54:10.508Z,22.39
2023-05-14T12:56:37.924Z,21.62
2023-05-14T12:59:04.482Z,21.62
2023-05-14T13:01:30.612Z,22.26
2023-05-14T13:03:58.031Z,22.42
2023-05-14T13:06:24.161Z,22.50
2023-05-14T13:08:50.256Z,22.61
2023-05-14T13:11:16.305Z,22.10
2023-05-14T13:13:42.353Z,22.80
2023-05-14T13:16:08.638Z,23.79
2023-05-14T13:18:34.792Z,23.06
2023-05-14T13:21:03.551Z,23.50
2023-05-14T13:23:29.753Z,23.60
2023-05-14T13:25:55.795Z,21.98
2023-05-14T13:28:21.896Z,23.30
2023-05-14T13:31:04.807Z,24.09
2023-05-14T13:33:31.720Z,22.81
2023-05-14T13:35:57.787Z,22.69
2023-05-14T13:38:23.855Z,22.06
2023-05-14T13:40:49.940Z,22.81
2023-05-14T13:43:16.228Z,22.56
2023-05-14T13:45:42.360Z,22.68
2023-05-14T13:48:08.496Z,22.36
2023-05-14T13:50:34.585Z,21.24
2023-05-14T13:53:00.634Z,20.70
2023-05-14T13:55:26.705Z,20.98
2023-05-14T13:57:52.773Z,20.17
2023-05-14T14:00:18.968Z,20.50
2023-05-14T14:02:45.055Z,20.36
2023-05-14T14:05:11.141Z,19.56
2023-05-14T14:07:38.950Z,19.41
2023-05-14T14:10:05.617Z,19.58
2023-05-14T14:12:31.802Z,19.06
2023-05-14T14:14:57.942Z,18.75
2023-05-14T14:17:24.040Z,18.30
2023-05-14T14:19:50.094Z,18.69
2023-05-14T14:22:16.678Z,19.16
2023-05-14T14:24:42.806Z,19.96
2023-05-14T14:27:09.999Z,20.19
2023-05-14T14:29:36.324Z,20.52
2023-05-14T14:32:03.196Z,18.15
2023-05-14T14:34:29.380Z,17.90
2023-05-14T14:36:55.428Z,17.57
2023-05-14T14:39:23.835Z,17.69
2023-05-14T14:41:50.678Z,17.64
2023-05-14T14:44:16.737Z,17.99
2023-05-14T14:46:42.832Z,18.63
2023-05-14T14:49:09.113Z,17.87
2023-05-14T14:51:35.387Z,15.00
2023-05-14T14:54:01.640Z,17.83
2023-05-14T14:56:27.741Z,17.71
2023-05-14T14:58:53.830Z,18.58
2023-05-14T15:01:20.676Z,17.19
2023-05-14T15:03:47.691Z,17.17
2023-05-14T15:06:13.832Z,17.75
2023-05-14T15:08:40.812Z,17.22
2023-05-14T15:11:07.705Z,18.06
2023-05-14T15:13:33.892Z,18.36
2023-05-14T15:16:00.188Z,17.47
2023-05-14T15:18:26.342Z,18.73
2023-05-14T15:20:52.694Z,18.04
2023-05-14T15:23:18.760Z,17.18
2023-05-14T15:25:45.024Z,17.25
2023-05-14T15:28:11.097Z,17.78
2023-05-14T15:30:37.239Z,18.48
2023-05-14T15:33:03.423Z,18.60
2023-05-14T15:35:29.596Z,18.98
2023-05-14T15:37:58.581Z,18.80
2023-05-14T15:40:26.592Z,19.11
2023-05-14T15:42:52.810Z,18.77
2023-05-14T15:45:18.929Z,18.02
2023-05-14T15:47:45.096Z,19.35
2023-05-14T15:50:11.448Z,19.12
2023-05-14T15:52:38.453Z,18.35
2023-05-14T15:55:05.361Z,19.04
2023-05-14T15:57:31.677Z,19.27
2023-05-14T15:59:57.809Z,19.42
2023-05-14T16:02:24.004Z,19.51
2023-05-14T16:04:50.133Z,19.71
2023-05-14T16:07:16.241Z,19.58
2023-05-14T16:09:42.453Z,20.01
2023-05-14T16:12:08.664Z,19.49
2023-05-14T16:14:34.884Z,18.82
2023-05-14T16:17:01.407Z,20.07
2023-05-14T16:19:27.707Z,20.27
2023-05-14T16:21:54.129Z,20.04
2023-05-14T16:24:20.388Z,20.36
2023-05-14T16:26:46.735Z,20.29
2023-05-14T16:29:12.864Z,20.34
2023-05-14T16:31:39.224Z,20.52
2023-05-14T16:34:05.342Z,20.44
2023-05-14T16:36:31.990Z,20.52
2023-05-14T16:39:07.148Z,20.06
2023-05-14T16:41:34.994Z,19.89
2023-05-14T16:44:01.060Z,20.17
2023-05-14T16:46:28.538Z,19.95
2023-05-14T16:48:54.809Z,20.15
2023-05-14T16:51:20.881Z,20.10
2023-05-14T16:53:46.969Z,19.88
2023-05-14T16:56:13.137Z,19.98
2023-05-14T16:58:39.207Z,19.46
2023-05-14T17:01:07.385Z,20.15
2023-05-14T17:03:35.475Z,20.15
2023-05-14T17:06:01.596Z,19.16
2023-05-14T17:08:32.656Z,19.48
2023-05-14T17:10:58.877Z,20.13
2023-05-14T17:13:25.053Z,20.39
2023-05-14T17:15:51.228Z,19.94
2023-05-14T17:18:17.394Z,20.37
2023-05-14T17:20:43.504Z,19.83
2023-05-14T17:23:09.622Z,20.48
2023-05-14T17:25:35.761Z,20.24
2023-05-14T17:28:02.013Z,20.27
2023-05-14T17:30:28.130Z,19.98
2023-05-14T17:32:54.317Z,20.36
2023-05-14T17:35:20.510Z,20.59
2023-05-14T17:37:46.695Z,20.57
2023-05-14T17:40:12.852Z,20.74
2023-05-14T17:42:38.998Z,20.54
2023-05-14T17:45:05.794Z,19.30
2023-05-14T17:47:31.957Z,20.10
2023-05-14T17:49:58.171Z,20.09
2023-05-14T17:52:24.329Z,19.87
2023-05-14T17:54:50.620Z,19.78
2023-05-14T17:57:16.737Z,19.52
2023-05-14T17:59:42.897Z,19.58
2023-05-14T18:02:09.006Z,19.51
2023-05-14T18:04:35.141Z,19.04
2023-05-14T18:07:02.433Z,19.31
2023-05-14T18:09:28.490Z,19.21
2023-05-14T18:11:56.811Z,19.50
2023-05-14T18:14:23.235Z,19.57
2023-05-14T18:16:49.500Z,19.12
2023-05-14T18:19:15.706Z,17.68
2023-05-14T18:21:42.072Z,18.10
2023-05-14T18:24:08.406Z,18.13
2023-05-14T18:26:34.614Z,17.91
2023-05-14T18:29:00.701Z,17.28
2023-05-14T18:31:27.042Z,17.84
2023-05-14T18:33:53.550Z,16.94
2023-05-14T18:36:19.703Z,15.46
2023-05-14T18:38:45.810Z,18.13
2023-05-14T18:41:12.002Z,16.88
2023-05-14T18:43:38.072Z,17.20
2023-05-14T18:46:04.312Z,15.88
2023-05-14T18:48:30.762Z,17.96
2023-05-14T18:50:56.852Z,18.56
2023-05-14T18:53:22.914Z,17.87
2023-05-14T18:55:49.724Z,18.77
2023-05-14T18:58:16.846Z,17.21
2023-05-14T19:00:42.970Z,18.10
2023-05-14T19:03:09.121Z,18.41
2023-05-14T19:05:35.361Z,18.16
2023-05-14T19:08:01.649Z,17.85
2023-05-14T19:10:27.745Z,18.45
2023-05-14T19:12:53.825Z,18.52
2023-05-14T19:15:19.900Z,17.78
2023-05-14T19:17:46.033Z,18.18
2023-05-14T19:20:12.188Z,17.62
2023-05-14T19:22:38.270Z,18.43
2023-05-14T19:25:05.946Z,18.33
2023-05-14T19:27:33.805Z,18.15
2023-05-14T19:30:00.016Z,18.19
2023-05-14T19:32:26.089Z,18.37
2023-05-14T19:34:52.163Z,16.47
2023-05-14T19:37:18.286Z,17.55
2023-05-14T19:39:44.384Z,17.76
2023-05-14T19:42:10.593Z,18.50
2023-05-14T19:44:36.709Z,18.63
2023-05-14T19:47:03.110Z,18.39
2023-05-14T19:49:29.195Z,18.50
2023-05-14T19:51:55.325Z,18.46
2023-05-14T19:54:21.380Z,17.42
2023-05-14T19:56:47.842Z,17.97
2023-05-14T19:59:14.288Z,17.86
2023-05-14T20:01:40.787Z,17.89
2023-05-14T20:04:06.963Z,17.88
2023-05-14T20:06:33.565Z,16.52
2023-05-14T20:09:00.483Z,17.49
2023-05-14T20:11:26.610Z,16.95
2023-05-14T20:13:52.687Z,17.03
2023-05-14T20:16:18.870Z,16.72
2023-05-14T20:18:45.360Z,16.56
2023-05-14T20:21:11.529Z,17.22
2023-05-14T20:23:37.597Z,17.59
2023-05-14T20:26:03.764Z,17.77
2023-05-14T20:28:29.923Z,17.72
2023-05-14T20:30:58.120Z,17.80
2023-05-14T20:33:24.399Z,17.90
2023-05-14T20:35:51.058Z,17.53
2023-05-14T20:38:18.455Z,17.43
2023-05-14T20:40:44.665Z,17.30
2023-05-14T20:43:10.750Z,17.12
2023-05-14T20:45:37.089Z,16.67
2023-05-14T20:48:09.044Z,17.24
2023-05-14T20:50:35.772Z,17.47
2023-05-14T20:53:03.146Z,17.44
2023-05-14T20:55:29.232Z,16.44
2023-05-14T20:57:55.305Z,17.28
2023-05-14T21:00:21.375Z,17.16
2023-05-14T21:02:48.359Z,17.11
2023-05-14T21:05:16.549Z,16.95
2023-05-14T21:07:42.631Z,16.86
2023-05-14T21:10:09.455Z,17.30
2023-05-14T21:12:35.786Z,17.25
2023-05-14T21:15:02.030Z,13.99
2023-05-14T21:17:28.186Z,16.26
2023-05-14T21:19:54.300Z,17.21
2023-05-14T21:22:21.393Z,13.74
2023-05-14T21:24:49.392Z,17.20
2023-05-14T21:27:15.488Z,17.20
2023-05-14T21:29:41.607Z,17.21
2023-05-14T21:32:08.153Z,17.00
2023-05-14T21:34:34.267Z,17.07
2023-05-14T21:37:00.462Z,16.97
2023-05-14T21:39:26.536Z,16.99
2023-05-14T21:41:52.571Z,16.81
2023-05-14T21:44:18.630Z,16.82
2023-05-14T21:46:44.707Z,16.02
2023-05-14T21:49:10.754Z,16.39
2023-05-14T21:51:36.797Z,16.12
2023-05-14T21:54:03.060Z,16.15
2023-05-14T21:56:29.185Z,13.69
2023-05-14T21:58:55.355Z,16.10
2023-05-14T22:01:21.481Z,15.78
2023-05-14T22:03:47.747Z,15.74
2023-05-14T22:06:13.900Z,15.41
2023-05-14T22:08:39.997Z,14.63
2023-05-14T22:11:06.060Z,14.63
2023-05-14T22:13:34.277Z,15.36
2023-05-14T22:16:12.274Z,15.91
2023-05-14T22:18:39.918Z,14.61
2023-05-14T22:21:05.986Z,15.50
2023-05-14T22:23:32.084Z,15.51
2023-05-14T22:25:58.208Z,15.51
2023-05-14T22:28:24.358Z,15.67
2023-05-14T22:30:50.511Z,14.92
2023-05-14T22:33:18.481Z,13.42
2023-05-14T22:35:44.696Z,14.85
2023-05-14T22:38:11.740Z,12.48
2023-05-14T22:40:37.861Z,14.37
2023-05-14T22:43:04.100Z,14.41
2023-05-14T22:45:30.404Z,13.74
2023-05-14T22:47:56.574Z,14.09
2023-05-14T22:50:22.679Z,15.17
2023-05-14T22:52:48.798Z,15.44
2023-05-14T22:55:14.949Z,15.05
2023-05-14T22:57:41.037Z,15.33
2023-05-14T23:00:08.328Z,15.38
2023-05-14T23:02:34.449Z,14.83
2023-05-14T23:05:00.551Z,14.57
2023-05-14T23:07:26.694Z,13.43
2023-05-14T23:09:52.790Z,14.16
2023-05-14T23:12:18.851Z,14.53
2023-05-14T23:14:45.275Z,13.77
2023-05-14T23:17:11.447Z,14.11
2023-05-14T23:19:37.831Z,13.43
2023-05-14T23:22:04.160Z,13.85
2023-05-14T23:24:30.254Z,14.24
2023-05-14T23:26:56.343Z,14.67
2023-05-14T23:29:22.800Z,14.75
2023-05-14T23:31:48.958Z,14.89
2023-05-14T23:34:15.408Z,14.73
2023-05-14T23:36:41.994Z,14.85
2023-05-14T23:39:08.278Z,13.82
2023-05-14T23:41:34.351Z,14.88
2023-05-14T23:44:00.411Z,14.80
2023-05-14T23:46:26.518Z,14.78
2023-05-14T23:48:56.229Z,14.80
2023-05-14T23:51:23.604Z,14.69
2023-05-14T23:53:49.776Z,14.62
2023-05-14T23:56:15.939Z,14.89
2023-05-14T23:58:42.000Z,13.86
